Latest Weather Observations for Middle Percy Island

IDQ60801

Issued at 2:35 pm EST Friday 31 October 2014 (issued every 30 minutes, with the page automatically refreshed every 10 minutes)

About weather observations | Map of weather stations | Latest weather observations for QLD | Other Formats
Station Details ID: 200001 Name: MIDDLE PERCY ISLAND Lat: -21.66 Lon: 150.27 Height: 208.7 m
Data from the previous 72 hours. | See also: Recent months at Middle Percy Island
Date/Time
EST
Temp
°C
App
Temp
°C
Dew
Point
Rel
Hum
%
Delta-T
°C
Wind Press
QNH
hPa
Press
MSL
hPa
Rain
since 9 am
mm
Dir
 
Spd
km/h
Gust
km/h
Spd
kts
Gust
kts
31/02:30pm 24.9 24.7 18.6 68 4.0 ENE 17 24 9 13 1015.0 1014.1 0.0
31/02:00pm 25.3 25.2 18.7 67 4.2 NE 17 28 9 15 1015.2 1014.3 0.0
31/01:30pm 25.4 25.2 19.3 69 3.9 NNE 19 28 10 15 1015.6 1014.6 0.0
31/01:00pm 26.6 27.5 20.0 67 4.3 NE 15 24 8 13 1016.0 1015.0 0.0
31/12:30pm 26.1 27.0 20.0 69 4.0 NE 15 22 8 12 1016.4 1015.4 0.0
31/12:00pm 26.0 26.8 19.9 69 4.0 ENE 15 24 8 13 1016.7 1015.7 0.0
31/11:30am 24.5 25.3 19.1 72 3.5 NE 13 20 7 11 1017.1 1016.1 0.0
31/11:00am 24.9 26.1 19.1 70 3.7 NE 11 17 6 9 1017.2 1016.2 0.0
31/10:30am 25.7 25.3 18.9 66 4.4 NNE 19 24 10 13 1017.3 1016.3 0.0
31/10:00am 25.6 26.2 19.5 69 4.0 ENE 15 24 8 13 1017.4 1016.4 0.0
31/09:30am 25.0 24.6 18.9 69 3.9 NNE 19 22 10 12 1017.3 1016.3 0.0
31/09:00am 24.4 25.3 19.2 73 3.3 ENE 13 20 7 11 1017.4 1016.4 0.0
31/08:30am 24.6 25.9 19.4 73 3.4 NNE 11 19 6 10 1017.3 1016.3 0.0
31/08:00am 23.9 25.0 18.8 73 3.3 NE 11 19 6 10 1017.2 1016.2 0.0
31/07:30am 23.3 24.2 19.2 78 2.6 NNE 13 20 7 11 1016.9 1015.9 0.0
31/07:00am 22.7 24.4 19.3 81 2.2 NNE 9 15 5 8 1016.8 1015.8 0.0
31/06:30am 22.4 24.7 19.9 86 1.6 NNE 7 13 4 7 1016.5 1015.5 0.0
31/06:00am 21.6 23.2 19.2 86 1.5 NNE 9 13 5 7 1016.5 1015.5 0.0
31/05:30am 21.1 22.3 19.0 88 1.3 N 11 17 6 9 1015.9 1014.9 0.0
31/05:00am 21.1 21.8 18.9 87 1.4 NNE 13 17 7 9 1015.4 1014.4 0.0
31/04:30am 21.3 21.7 19.0 87 1.5 N 15 20 8 11 1015.1 1014.2 0.0
31/04:00am 21.0 21.7 18.9 88 1.3 NNE 13 19 7 10 1015.2 1014.3 0.0
31/03:30am 21.0 22.1 18.8 87 1.4 NNE 11 17 6 9 1015.2 1014.3 0.0
31/03:00am 21.2 21.9 18.8 86 1.5 NNE 13 19 7 10 1014.9 1013.9 0.0
31/02:30am 21.1 22.2 18.9 87 1.4 NNE 11 17 6 9 1014.8 1013.8 0.0
31/02:00am 21.1 21.4 18.7 86 1.5 NNE 15 22 8 12 1014.9 1013.9 0.0
31/01:30am 21.1 21.7 18.7 86 1.5 NNE 13 22 7 12 1015.1 1014.2 0.0
31/01:00am 21.2 22.3 18.8 86 1.5 NNE 11 19 6 10 1015.9 1014.9 0.0
31/12:30am 21.4 21.2 18.6 84 1.8 NNE 17 22 9 12 1016.1 1015.1 0.0
31/12:00am 21.5 21.9 18.9 85 1.7 NNE 15 22 8 12 1015.9 1014.9 0.0
 
Date/Time
EST
Temp
°C
App
Temp
°C
Dew
Point
Rel
Hum
%
Delta-T
°C
Wind Press
QNH
hPa
Press
MSL
hPa
Rain
since 9 am
mm
Dir
 
Spd
km/h
Gust
km/h
Spd
kts
Gust
kts
30/11:30pm 21.6 21.6 19.0 85 1.7 NNE 17 24 9 13 1015.9 1014.9 0.0
30/11:00pm 21.7 21.2 19.1 85 1.7 NNE 20 28 11 15 1016.1 1015.1 0.0
30/10:30pm 21.9 21.8 19.5 86 1.5 NNE 19 26 10 14 1016.4 1015.4 0.0
30/10:00pm 21.9 21.1 19.3 85 1.7 NNE 22 32 12 17 1016.2 1015.2 0.0
30/09:30pm 21.9 21.4 19.1 84 1.8 NNE 20 32 11 17 1016.2 1015.2 0.0
30/09:00pm 22.1 22.4 19.5 85 1.7 NNE 17 24 9 13 1016.3 1015.3 0.0
30/08:30pm 22.1 21.9 19.3 84 1.8 NNE 19 30 10 16 1016.0 1015.0 0.0
30/08:00pm 22.1 22.0 19.5 85 1.7 NNE 19 32 10 17 1015.7 1014.7 0.0
30/07:30pm 22.1 21.4 19.5 85 1.7 NE 22 33 12 18 1015.4 1014.4 0.0
30/07:00pm 22.2 22.2 19.7 86 1.6 NE 19 33 10 18 1015.4 1014.4 0.0
30/06:30pm 22.3 22.3 19.7 85 1.7 NNE 19 28 10 15 1015.1 1014.2 0.0
30/06:00pm 22.5 22.5 19.7 84 1.8 NNE 19 28 10 15 1014.8 1013.8 0.0
30/05:30pm 22.8 22.0 19.2 80 2.3 NE 22 28 12 15 1014.5 1013.5 0.0
30/05:00pm 23.0 23.0 19.8 82 2.1 NE 19 26 10 14 1014.4 1013.4 0.0
30/04:30pm 23.3 23.6 19.5 79 2.5 NNE 17 26 9 14 1014.1 1013.1 0.0
30/04:00pm 24.0 24.3 19.5 76 2.9 NNE 17 26 9 14 1014.1 1013.1 0.0
30/03:30pm 24.3 24.0 19.6 75 3.0 NE 20 26 11 14 1014.0 1013.0 0.0
30/03:00pm 24.8 24.6 19.8 74 3.3 NE 20 33 11 18 1014.1 1013.1 0.0
30/02:30pm 25.4 25.2 19.8 71 3.7 NE 20 28 11 15 1014.2 1013.2 0.0
30/02:00pm 25.3 24.8 19.9 72 3.5 NE 22 32 12 17 1014.5 1013.5 0.0
30/01:30pm 24.9 23.4 19.5 72 3.5 NE 26 33 14 18 1014.6 1013.6 0.0
30/01:00pm 25.4 25.2 19.8 71 3.7 NE 20 28 11 15 1015.0 1014.1 0.0
30/12:30pm 25.5 25.1 20.1 72 3.5 NE 22 33 12 18 1015.4 1014.4 0.0
30/12:00pm 25.1 24.0 19.5 71 3.6 NE 24 33 13 18 1015.7 1014.7 0.0
30/11:30am 26.1 26.5 20.7 72 3.6 NNE 19 30 10 16 1016.3 1015.3 0.0
30/11:00am 26.2 26.4 20.5 71 3.8 NE 20 32 11 17 1016.5 1015.5 0.0
30/10:30am 25.1 24.2 19.9 73 3.4 NE 24 33 13 18 1016.4 1015.4 0.0
30/10:00am 25.2 24.3 20.7 76 3.0 NNE 26 35 14 19 1016.3 1015.3 0.0
30/09:30am 25.5 24.6 18.2 64 4.7 NNE 20 30 11 16 1016.4 1015.4 0.0
30/09:00am 25.1 25.0 19.5 71 3.6 NNE 19 30 10 16 1016.6 1015.6 0.0
30/08:30am 24.4 24.3 19.9 76 2.9 NNE 20 30 11 16 1016.9 1015.9 0.0
30/08:00am 23.7 23.2 19.2 76 2.9 NNE 20 28 11 15 1017.0 1016.0 0.0
30/07:30am 23.7 24.9 19.8 79 2.5 N 13 19 7 10 1017.3 1016.3 0.0
30/07:00am 23.0 25.4 20.0 83 1.9 NNW 7 17 4 9 1017.3 1016.3 0.0
30/06:30am 22.1 24.1 20.0 88 1.4 NW 9 15 5 8 1017.9 1016.9 0.0
30/06:00am 21.6 23.7 20.1 91 1.0 NW 9 13 5 7 1017.6 1016.6 0.0
30/05:30am 21.2 23.1 19.7 91 1.0 NW 9 13 5 7 1017.2 1016.2 0.0
30/05:00am 20.9 22.8 19.7 93 0.8 N 9 13 5 7 1016.2 1015.2 0.0
30/04:30am 21.2 23.1 19.8 92 0.9 N 9 13 5 7 1015.9 1014.9 0.0
30/04:00am 21.2 23.1 19.7 91 1.0 N 9 15 5 8 1015.4 1014.4 0.0
30/03:30am 21.5 22.8 20.1 92 0.9 N 13 20 7 11 1014.8 1013.8 0.0
30/03:00am 21.4 22.6 19.9 91 1.0 N 13 17 7 9 1014.6 1013.6 0.0
30/02:30am 21.4 22.1 19.7 90 1.1 N 15 22 8 12 1014.2 1013.2 0.0
30/02:00am 21.3 21.6 19.6 90 1.1 N 17 28 9 15 1014.0 1013.0 0.0
30/01:30am 21.3 22.1 19.9 92 0.9 N 15 22 8 12 1014.1 1013.1 0.0
30/01:00am 21.5 22.4 20.1 92 0.9 N 15 24 8 13 1014.5 1013.5 0.0
30/12:30am 21.6 22.6 20.2 92 0.9 N 15 20 8 11 1014.5 1013.5 0.0
30/12:00am 21.7 21.5 20.5 93 0.8 N 22 32 12 17 1014.3 1013.3 0.0
 
Date/Time
EST
Temp
°C
App
Temp
°C
Dew
Point
Rel
Hum
%
Delta-T
°C
Wind Press
QNH
hPa
Press
MSL
hPa
Rain
since 9 am
mm
Dir
 
Spd
km/h
Gust
km/h
Spd
kts
Gust
kts
29/11:30pm 21.6 20.7 20.6 94 0.7 N 26 35 14 19 1014.4 1013.4 0.0
29/11:00pm 21.6 20.7 20.6 94 0.7 N 26 37 14 20 1014.8 1013.8 0.0
29/10:30pm 21.7 20.0 20.5 93 0.8 N 30 41 16 22 1014.7 1013.7 0.0
29/10:00pm 21.8 20.9 20.6 93 0.8 N 26 37 14 20 1015.0 1014.1 0.0
29/09:30pm 21.8 22.3 20.8 94 0.7 N 19 28 10 15 1015.5 1014.5 0.0
29/09:00pm 21.7 21.1 20.5 93 0.8 N 24 33 13 18 1015.0 1014.1 0.0
29/08:30pm 21.8 21.6 20.6 93 0.8 N 22 32 12 17 1014.8 1013.8 0.0
29/08:00pm 21.8 20.9 20.6 93 0.8 N 26 39 14 21 1014.5 1013.5 0.0
29/07:30pm 21.9 19.6 20.5 92 0.9 N 33 44 18 24 1013.8 1012.8 0.0
29/07:00pm 22.0 19.2 20.3 90 1.1 N 35 44 19 24 1013.6 1012.6 0.0
29/06:30pm 22.0 19.7 20.5 91 1.0 N 33 46 18 25 1013.5 1012.5 0.0
29/06:00pm 22.1 19.8 20.6 91 1.0 N 33 44 18 24 1013.2 1012.2 0.0
29/05:30pm 22.6 20.3 20.5 88 1.4 N 33 44 18 24 1013.2 1012.2 0.0
29/05:00pm 22.9 20.7 20.4 86 1.6 N 32 43 17 23 1012.8 1011.8 0.0
29/04:30pm 23.8 22.2 20.7 83 2.0 N 30 43 16 23 1013.0 1012.0 0.0
29/04:00pm 24.0 22.6 20.5 81 2.3 N 28 39 15 21 1012.8 1011.8 0.0
29/03:30pm 23.7 22.2 20.2 81 2.3 N 28 39 15 21 1012.9 1011.9 0.0
29/03:00pm 24.5 24.2 20.4 78 2.7 N 22 32 12 17 1013.4 1012.4 0.0
29/02:30pm 24.7 24.5 20.6 78 2.7 N 22 30 12 16 1013.8 1012.8 0.0
29/02:00pm 24.9 24.3 20.6 77 2.8 N 24 33 13 18 1014.1 1013.1 0.0
29/01:30pm 24.8 24.5 20.3 76 3.0 N 22 30 12 16 1014.1 1013.1 0.0
29/01:00pm 25.4 25.7 20.4 74 3.3 N 19 28 10 15 1014.4 1013.4 0.0
29/12:30pm 25.3 25.2 20.8 76 3.0 N 22 33 12 18 1014.5 1013.5 0.0
29/12:00pm 24.9 24.6 20.4 76 3.0 N 22 30 12 16 1014.7 1013.7 0.0
29/11:30am 25.0 24.3 20.3 75 3.1 N 24 35 13 19 1014.7 1013.7 0.0
29/11:00am 25.5 25.8 20.3 73 3.4 NNW 19 28 10 15 1015.2 1014.3 0.0
29/10:30am 25.3 24.9 21.0 77 2.9 N 24 35 13 19 1015.6 1014.6 0.0
29/10:00am 24.2 22.3 20.1 78 2.7 N 30 39 16 21 1015.5 1014.5 0.0
29/09:30am 24.4 23.7 20.3 78 2.7 N 24 37 13 20 1015.8 1014.8 0.0
29/09:00am 24.3 23.0 20.6 80 2.4 N 28 37 15 20 1015.4 1014.4 0.0
29/08:30am 23.5 22.7 20.0 81 2.3 NNW 24 37 13 20 1015.4 1014.4 0.0
29/08:00am 23.6 23.3 20.3 82 2.2 NNW 22 33 12 18 1015.7 1014.7 0.0
29/07:30am 23.3 22.2 20.2 83 2.0 N 26 39 14 21 1015.0 1014.1 0.0
29/07:00am 22.8 21.3 20.3 86 1.6 N 28 39 15 21 1014.6 1013.6 0.0
29/06:30am 22.2 20.3 20.1 88 1.4 N 30 39 16 21 1014.3 1013.3 0.0
29/06:00am 21.8 19.9 20.1 90 1.1 N 30 41 16 22 1014.1 1013.1 0.0
29/05:30am 21.5 19.0 19.8 90 1.1 N 32 43 17 23 1013.2 1012.2 0.0
29/05:00am 21.4 18.9 19.7 90 1.1 N 32 41 17 22 1013.0 1012.0 0.0
29/04:30am 21.2 19.1 19.8 92 0.9 N 30 39 16 21 1012.9 1011.9 0.0
29/04:00am 21.2 19.8 20.4 95 0.5 N 28 35 15 19 1012.9 1011.9 0.0
29/03:30am 21.1 20.8 20.3 95 0.5 N 22 30 12 16 1013.0 1012.0 0.0
29/03:00am 21.0 21.2 20.2 95 0.5 N 19 24 10 13 1013.6 1012.6 0.0
29/02:30am 21.2 23.4 20.4 95 0.5 NNW 9 19 5 10 1014.4 1013.4 0.0
29/02:00am 21.4 23.2 20.4 94 0.6 NNW 11 17 6 9 1014.7 1013.7 0.0
29/01:30am 21.6 23.3 20.2 92 0.9 NW 11 17 6 9 1015.1 1014.2 0.0
29/01:00am 21.8 24.3 20.3 91 1.0 WNW 7 13 4 7 1015.7 1014.7 0.0
29/12:30am 21.8 22.8 20.3 91 1.0 NNW 15 20 8 11 1015.1 1014.2 0.0
29/12:00am 21.6 21.3 20.4 93 0.8 N 22 35 12 19 1014.5 1013.5 0.0
 
Date/Time
EST
Temp
°C
App
Temp
°C
Dew
Point
Rel
Hum
%
Delta-T
°C
Wind Press
QNH
hPa
Press
MSL
hPa
Rain
since 9 am
mm
Dir
 
Spd
km/h
Gust
km/h
Spd
kts
Gust
kts
28/11:30pm 21.6 22.0 20.6 94 0.7 N 19 35 10 19 1014.7 1013.7 0.0
28/11:00pm 21.6 20.2 20.4 93 0.8 N 28 39 15 21 1014.2 1013.2 0.0
28/10:30pm 21.6 19.2 20.4 93 0.8 N 33 44 18 24 1014.1 1013.1 0.0
28/10:00pm 21.7 18.6 20.5 93 0.8 N 37 46 20 25 1013.9 1012.9 0.0
28/09:30pm 21.7 18.5 20.3 92 0.9 N 37 48 20 26 1013.7 1012.7 0.0
28/09:00pm 21.7 18.5 20.2 91 1.0 N 37 50 20 27 1013.4 1012.4 0.0
28/08:30pm 21.8 18.2 20.1 90 1.1 N 39 48 21 26 1013.3 1012.3 0.0
28/08:00pm 21.8 18.6 20.3 91 1.0 N 37 50 20 27 1013.3 1012.3 0.0
28/07:30pm 21.8 19.0 20.3 91 1.0 N 35 44 19 24 1013.3 1012.3 0.0
28/07:00pm 21.9 18.2 20.0 89 1.2 N 39 52 21 28 1012.6 1011.6 0.0
28/06:30pm 21.9 18.5 19.8 88 1.4 N 37 50 20 27 1012.8 1011.8 0.0
28/06:00pm 22.0 19.4 19.9 88 1.4 N 33 48 18 26 1012.6 1011.6 0.0
28/05:30pm 22.4 19.7 19.6 84 1.8 N 33 44 18 24 1012.7 1011.7 0.0
28/05:00pm 23.0 20.8 19.6 81 2.2 N 30 43 16 23 1012.7 1011.7 0.0
28/04:30pm 23.5 21.2 19.4 78 2.6 N 30 41 16 22 1012.6 1011.6 0.0
28/04:00pm 23.8 22.0 19.5 77 2.8 N 28 41 15 22 1012.6 1011.6 0.0
28/03:30pm 23.9 21.6 19.4 76 2.9 N 30 41 16 22 1012.6 1011.6 0.0
28/03:00pm 24.2 22.1 19.7 76 2.9 N 30 44 16 24 1012.8 1011.8 0.0

Other Formats:

Comma delimited format used in spreadsheet applications
http://www.bom.gov.au/fwo/IDQ60801/IDQ60801.94372.axf

JavaScript Object Notation format (JSON) in row-major order
http://www.bom.gov.au/fwo/IDQ60801/IDQ60801.94372.json